sensor_id;sensor_type;location;lat;lon;timestamp;P1;durP1;ratioP1;P2;durP2;ratioP2
38358;SDS011;42072;48.044;14.416;2023-03-23T00:01:48;13.95;;;7.22;;
38358;SDS011;42072;48.044;14.416;2023-03-23T00:04:15;18.83;;;9.90;;
38358;SDS011;42072;48.044;14.416;2023-03-23T00:06:42;11.65;;;6.78;;
38358;SDS011;42072;48.044;14.416;2023-03-23T00:09:11;24.60;;;12.20;;
38358;SDS011;42072;48.044;14.416;2023-03-23T00:11:38;23.25;;;12.25;;
38358;SDS011;42072;48.044;14.416;2023-03-23T00:14:06;27.63;;;13.63;;
38358;SDS011;42072;48.044;14.416;2023-03-23T00:16:39;24.90;;;12.55;;
38358;SDS011;42072;48.044;14.416;2023-03-23T00:19:10;21.60;;;10.93;;
38358;SDS011;42072;48.044;14.416;2023-03-23T00:21:40;32.83;;;15.98;;
38358;SDS011;42072;48.044;14.416;2023-03-23T00:24:09;70.43;;;34.83;;
38358;SDS011;42072;48.044;14.416;2023-03-23T00:26:38;20.65;;;10.63;;
38358;SDS011;42072;48.044;14.416;2023-03-23T00:29:07;25.08;;;11.68;;
38358;SDS011;42072;48.044;14.416;2023-03-23T00:31:39;20.23;;;10.13;;
38358;SDS011;42072;48.044;14.416;2023-03-23T00:34:05;14.68;;;8.75;;
38358;SDS011;42072;48.044;14.416;2023-03-23T00:36:32;15.10;;;7.70;;
38358;SDS011;42072;48.044;14.416;2023-03-23T00:39:01;15.40;;;7.53;;
38358;SDS011;42072;48.044;14.416;2023-03-23T00:41:28;11.32;;;7.20;;
38358;SDS011;42072;48.044;14.416;2023-03-23T00:43:55;12.15;;;6.65;;
38358;SDS011;42072;48.044;14.416;2023-03-23T00:46:25;12.73;;;7.45;;
38358;SDS011;42072;48.044;14.416;2023-03-23T00:48:53;12.00;;;7.38;;
38358;SDS011;42072;48.044;14.416;2023-03-23T00:51:22;14.68;;;8.80;;
38358;SDS011;42072;48.044;14.416;2023-03-23T00:53:49;12.35;;;7.68;;
38358;SDS011;42072;48.044;14.416;2023-03-23T00:56:16;13.23;;;7.07;;
38358;SDS011;42072;48.044;14.416;2023-03-23T00:58:42;18.13;;;9.85;;
38358;SDS011;42072;48.044;14.416;2023-03-23T01:01:08;13.50;;;8.30;;
38358;SDS011;42072;48.044;14.416;2023-03-23T01:03:35;13.55;;;8.18;;
38358;SDS011;42072;48.044;14.416;2023-03-23T01:06:06;13.07;;;7.85;;
38358;SDS011;42072;48.044;14.416;2023-03-23T01:08:33;14.07;;;8.07;;
38358;SDS011;42072;48.044;14.416;2023-03-23T01:11:02;13.98;;;7.90;;
38358;SDS011;42072;48.044;14.416;2023-03-23T01:13:30;11.93;;;7.63;;
38358;SDS011;42072;48.044;14.416;2023-03-23T01:15:56;17.30;;;7.65;;
38358;SDS011;42072;48.044;14.416;2023-03-23T01:18:22;12.27;;;8.20;;
38358;SDS011;42072;48.044;14.416;2023-03-23T01:20:48;10.93;;;8.05;;
38358;SDS011;42072;48.044;14.416;2023-03-23T01:23:14;12.93;;;8.10;;
38358;SDS011;42072;48.044;14.416;2023-03-23T01:25:40;15.45;;;8.23;;
38358;SDS011;42072;48.044;14.416;2023-03-23T01:28:06;14.55;;;7.72;;
38358;SDS011;42072;48.044;14.416;2023-03-23T01:30:32;13.23;;;8.15;;
38358;SDS011;42072;48.044;14.416;2023-03-23T01:32:58;24.42;;;12.48;;
38358;SDS011;42072;48.044;14.416;2023-03-23T01:35:24;28.23;;;12.75;;
38358;SDS011;42072;48.044;14.416;2023-03-23T01:37:50;14.80;;;9.50;;
38358;SDS011;42072;48.044;14.416;2023-03-23T01:40:16;13.77;;;8.48;;
38358;SDS011;42072;48.044;14.416;2023-03-23T01:42:42;12.73;;;8.30;;
38358;SDS011;42072;48.044;14.416;2023-03-23T01:45:27;13.90;;;8.88;;
38358;SDS011;42072;48.044;14.416;2023-03-23T01:47:57;12.48;;;8.07;;
38358;SDS011;42072;48.044;14.416;2023-03-23T01:50:26;11.35;;;8.07;;
38358;SDS011;42072;48.044;14.416;2023-03-23T01:52:55;12.50;;;8.13;;
38358;SDS011;42072;48.044;14.416;2023-03-23T01:55:23;12.55;;;8.90;;
38358;SDS011;42072;48.044;14.416;2023-03-23T01:57:53;13.70;;;8.88;;
38358;SDS011;42072;48.044;14.416;2023-03-23T02:00:22;16.63;;;9.35;;
38358;SDS011;42072;48.044;14.416;2023-03-23T02:02:50;17.17;;;8.57;;
38358;SDS011;42072;48.044;14.416;2023-03-23T02:05:51;12.30;;;8.52;;
38358;SDS011;42072;48.044;14.416;2023-03-23T02:08:10;11.38;;;7.70;;
38358;SDS011;42072;48.044;14.416;2023-03-23T02:10:39;12.23;;;8.25;;
38358;SDS011;42072;48.044;14.416;2023-03-23T02:13:06;13.23;;;8.63;;
38358;SDS011;42072;48.044;14.416;2023-03-23T02:15:45;14.20;;;7.85;;
38358;SDS011;42072;48.044;14.416;2023-03-23T02:27:01;16.17;;;7.97;;
38358;SDS011;42072;48.044;14.416;2023-03-23T02:32:21;13.07;;;8.07;;
38358;SDS011;42072;48.044;14.416;2023-03-23T02:37:57;14.70;;;7.97;;
38358;SDS011;42072;48.044;14.416;2023-03-23T02:40:39;12.48;;;8.10;;
38358;SDS011;42072;48.044;14.416;2023-03-23T02:43:14;12.50;;;7.75;;
38358;SDS011;42072;48.044;14.416;2023-03-23T02:45:46;12.40;;;7.82;;
38358;SDS011;42072;48.044;14.416;2023-03-23T02:48:13;12.10;;;7.32;;
38358;SDS011;42072;48.044;14.416;2023-03-23T02:50:43;11.98;;;7.20;;
38358;SDS011;42072;48.044;14.416;2023-03-23T02:53:13;12.07;;;7.40;;
38358;SDS011;42072;48.044;14.416;2023-03-23T02:55:43;16.92;;;8.90;;
38358;SDS011;42072;48.044;14.416;2023-03-23T02:58:11;11.77;;;7.70;;
38358;SDS011;42072;48.044;14.416;2023-03-23T03:00:37;13.23;;;7.88;;
38358;SDS011;42072;48.044;14.416;2023-03-23T03:03:04;12.65;;;7.85;;
38358;SDS011;42072;48.044;14.416;2023-03-23T03:10:55;13.45;;;7.80;;
38358;SDS011;42072;48.044;14.416;2023-03-23T03:13:46;13.98;;;7.95;;
38358;SDS011;42072;48.044;14.416;2023-03-23T03:16:23;16.10;;;8.05;;
38358;SDS011;42072;48.044;14.416;2023-03-23T03:21:53;12.02;;;8.30;;
38358;SDS011;42072;48.044;14.416;2023-03-23T03:24:22;12.90;;;7.32;;
38358;SDS011;42072;48.044;14.416;2023-03-23T03:26:52;13.75;;;8.13;;
38358;SDS011;42072;48.044;14.416;2023-03-23T03:29:23;15.45;;;7.80;;
38358;SDS011;42072;48.044;14.416;2023-03-23T03:31:59;14.18;;;8.48;;
38358;SDS011;42072;48.044;14.416;2023-03-23T03:34:30;13.25;;;7.80;;
38358;SDS011;42072;48.044;14.416;2023-03-23T03:36:57;15.85;;;7.65;;
38358;SDS011;42072;48.044;14.416;2023-03-23T03:39:25;9.85;;;7.07;;
38358;SDS011;42072;48.044;14.416;2023-03-23T03:41:52;10.75;;;7.30;;
38358;SDS011;42072;48.044;14.416;2023-03-23T03:44:19;13.80;;;7.93;;
38358;SDS011;42072;48.044;14.416;2023-03-23T03:46:45;18.48;;;8.85;;
38358;SDS011;42072;48.044;14.416;2023-03-23T03:49:11;14.05;;;9.30;;
38358;SDS011;42072;48.044;14.416;2023-03-23T03:51:38;13.13;;;8.70;;
38358;SDS011;42072;48.044;14.416;2023-03-23T03:54:06;14.70;;;8.15;;
38358;SDS011;42072;48.044;14.416;2023-03-23T03:56:32;12.93;;;7.93;;
38358;SDS011;42072;48.044;14.416;2023-03-23T03:59:01;16.27;;;8.25;;
38358;SDS011;42072;48.044;14.416;2023-03-23T04:01:28;14.18;;;8.93;;
38358;SDS011;42072;48.044;14.416;2023-03-23T04:03:54;15.75;;;8.95;;
38358;SDS011;42072;48.044;14.416;2023-03-23T04:06:21;19.05;;;9.05;;
38358;SDS011;42072;48.044;14.416;2023-03-23T04:08:47;13.68;;;7.97;;
38358;SDS011;42072;48.044;14.416;2023-03-23T04:11:14;15.57;;;8.65;;
38358;SDS011;42072;48.044;14.416;2023-03-23T04:13:40;19.40;;;9.57;;
38358;SDS011;42072;48.044;14.416;2023-03-23T04:16:06;19.52;;;10.52;;
38358;SDS011;42072;48.044;14.416;2023-03-23T04:18:33;16.27;;;9.68;;
38358;SDS011;42072;48.044;14.416;2023-03-23T04:21:01;20.63;;;9.73;;
38358;SDS011;42072;48.044;14.416;2023-03-23T04:23:28;17.10;;;9.85;;
38358;SDS011;42072;48.044;14.416;2023-03-23T04:25:58;18.15;;;10.07;;
38358;SDS011;42072;48.044;14.416;2023-03-23T04:28:25;18.55;;;10.20;;
38358;SDS011;42072;48.044;14.416;2023-03-23T04:30:53;15.60;;;9.68;;
38358;SDS011;42072;48.044;14.416;2023-03-23T04:33:23;20.27;;;10.30;;
38358;SDS011;42072;48.044;14.416;2023-03-23T04:35:55;16.20;;;8.63;;
38358;SDS011;42072;48.044;14.416;2023-03-23T04:38:26;13.25;;;8.52;;
38358;SDS011;42072;48.044;14.416;2023-03-23T04:40:53;17.95;;;8.95;;
38358;SDS011;42072;48.044;14.416;2023-03-23T04:43:21;17.48;;;9.65;;
38358;SDS011;42072;48.044;14.416;2023-03-23T04:45:53;18.38;;;9.60;;
38358;SDS011;42072;48.044;14.416;2023-03-23T04:48:25;19.92;;;9.07;;
38358;SDS011;42072;48.044;14.416;2023-03-23T04:50:53;15.55;;;8.65;;
38358;SDS011;42072;48.044;14.416;2023-03-23T04:53:19;15.93;;;8.88;;
38358;SDS011;42072;48.044;14.416;2023-03-23T04:55:47;15.15;;;8.82;;
38358;SDS011;42072;48.044;14.416;2023-03-23T04:58:14;15.98;;;9.25;;
38358;SDS011;42072;48.044;14.416;2023-03-23T05:00:42;16.45;;;8.75;;
38358;SDS011;42072;48.044;14.416;2023-03-23T05:03:11;18.08;;;9.13;;
38358;SDS011;42072;48.044;14.416;2023-03-23T05:05:41;14.32;;;9.00;;
38358;SDS011;42072;48.044;14.416;2023-03-23T05:08:12;16.75;;;8.48;;
38358;SDS011;42072;48.044;14.416;2023-03-23T05:10:39;15.20;;;9.18;;
38358;SDS011;42072;48.044;14.416;2023-03-23T05:13:05;13.70;;;8.43;;
38358;SDS011;42072;48.044;14.416;2023-03-23T05:15:31;15.48;;;9.23;;
38358;SDS011;42072;48.044;14.416;2023-03-23T05:17:57;17.45;;;10.57;;
38358;SDS011;42072;48.044;14.416;2023-03-23T05:20:23;20.05;;;10.23;;
38358;SDS011;42072;48.044;14.416;2023-03-23T05:22:50;18.67;;;10.10;;
38358;SDS011;42072;48.044;14.416;2023-03-23T05:25:17;17.65;;;10.02;;
38358;SDS011;42072;48.044;14.416;2023-03-23T05:27:47;17.02;;;9.25;;
38358;SDS011;42072;48.044;14.416;2023-03-23T05:30:18;19.00;;;8.77;;
38358;SDS011;42072;48.044;14.416;2023-03-23T05:32:45;16.95;;;8.30;;
38358;SDS011;42072;48.044;14.416;2023-03-23T05:35:15;17.85;;;8.25;;
38358;SDS011;42072;48.044;14.416;2023-03-23T05:37:43;12.57;;;8.80;;
38358;SDS011;42072;48.044;14.416;2023-03-23T05:40:10;16.67;;;9.35;;
38358;SDS011;42072;48.044;14.416;2023-03-23T05:42:38;16.67;;;9.23;;
38358;SDS011;42072;48.044;14.416;2023-03-23T05:45:07;17.88;;;11.52;;
38358;SDS011;42072;48.044;14.416;2023-03-23T05:47:34;17.85;;;12.38;;
38358;SDS011;42072;48.044;14.416;2023-03-23T05:50:01;20.75;;;11.40;;
38358;SDS011;42072;48.044;14.416;2023-03-23T05:52:27;16.50;;;11.02;;
38358;SDS011;42072;48.044;14.416;2023-03-23T05:54:53;14.25;;;9.15;;
38358;SDS011;42072;48.044;14.416;2023-03-23T05:57:19;16.17;;;9.32;;
38358;SDS011;42072;48.044;14.416;2023-03-23T05:59:48;11.95;;;8.90;;
38358;SDS011;42072;48.044;14.416;2023-03-23T06:02:14;12.40;;;7.70;;
38358;SDS011;42072;48.044;14.416;2023-03-23T06:04:41;12.82;;;7.95;;
38358;SDS011;42072;48.044;14.416;2023-03-23T06:07:08;9.52;;;6.80;;
38358;SDS011;42072;48.044;14.416;2023-03-23T06:09:38;16.70;;;7.97;;
38358;SDS011;42072;48.044;14.416;2023-03-23T06:12:05;9.60;;;6.45;;
38358;SDS011;42072;48.044;14.416;2023-03-23T06:14:33;11.20;;;7.22;;
38358;SDS011;42072;48.044;14.416;2023-03-23T06:16:59;14.88;;;7.93;;
38358;SDS011;42072;48.044;14.416;2023-03-23T06:19:25;15.52;;;8.30;;
38358;SDS011;42072;48.044;14.416;2023-03-23T06:21:54;38.53;;;13.05;;
38358;SDS011;42072;48.044;14.416;2023-03-23T06:24:20;14.55;;;7.00;;
38358;SDS011;42072;48.044;14.416;2023-03-23T06:26:47;14.07;;;6.72;;
38358;SDS011;42072;48.044;14.416;2023-03-23T06:29:14;13.73;;;8.15;;
38358;SDS011;42072;48.044;14.416;2023-03-23T06:31:41;11.15;;;7.03;;
38358;SDS011;42072;48.044;14.416;2023-03-23T06:34:10;14.00;;;7.75;;
38358;SDS011;42072;48.044;14.416;2023-03-23T06:36:36;13.98;;;8.35;;
38358;SDS011;42072;48.044;14.416;2023-03-23T06:39:03;12.05;;;7.30;;
38358;SDS011;42072;48.044;14.416;2023-03-23T06:41:33;11.02;;;6.35;;
38358;SDS011;42072;48.044;14.416;2023-03-23T06:43:59;9.38;;;5.82;;
38358;SDS011;42072;48.044;14.416;2023-03-23T06:46:26;8.70;;;5.32;;
38358;SDS011;42072;48.044;14.416;2023-03-23T06:48:53;8.63;;;5.35;;
38358;SDS011;42072;48.044;14.416;2023-03-23T06:51:20;11.45;;;5.15;;
38358;SDS011;42072;48.044;14.416;2023-03-23T06:53:46;10.15;;;5.40;;
38358;SDS011;42072;48.044;14.416;2023-03-23T06:56:13;8.77;;;5.28;;
38358;SDS011;42072;48.044;14.416;2023-03-23T06:58:39;9.57;;;5.53;;
38358;SDS011;42072;48.044;14.416;2023-03-23T07:01:07;8.52;;;5.57;;
38358;SDS011;42072;48.044;14.416;2023-03-23T07:03:34;9.57;;;5.82;;
38358;SDS011;42072;48.044;14.416;2023-03-23T07:06:02;14.75;;;6.22;;
38358;SDS011;42072;48.044;14.416;2023-03-23T07:08:29;8.27;;;5.35;;
38358;SDS011;42072;48.044;14.416;2023-03-23T07:10:55;10.23;;;6.43;;
38358;SDS011;42072;48.044;14.416;2023-03-23T07:13:22;12.45;;;6.15;;
38358;SDS011;42072;48.044;14.416;2023-03-23T07:15:48;11.40;;;5.65;;
38358;SDS011;42072;48.044;14.416;2023-03-23T07:18:15;16.33;;;5.60;;
38358;SDS011;42072;48.044;14.416;2023-03-23T07:20:42;14.73;;;6.80;;
38358;SDS011;42072;48.044;14.416;2023-03-23T07:23:08;16.38;;;9.68;;
38358;SDS011;42072;48.044;14.416;2023-03-23T07:25:35;12.82;;;8.18;;
38358;SDS011;42072;48.044;14.416;2023-03-23T07:28:02;16.65;;;9.45;;
38358;SDS011;42072;48.044;14.416;2023-03-23T07:30:28;15.35;;;7.00;;
38358;SDS011;42072;48.044;14.416;2023-03-23T07:32:55;10.95;;;6.20;;
38358;SDS011;42072;48.044;14.416;2023-03-23T07:35:22;9.98;;;5.78;;
38358;SDS011;42072;48.044;14.416;2023-03-23T07:37:49;10.07;;;5.03;;
38358;SDS011;42072;48.044;14.416;2023-03-23T07:40:17;7.70;;;4.78;;
38358;SDS011;42072;48.044;14.416;2023-03-23T07:42:44;9.77;;;4.88;;
38358;SDS011;42072;48.044;14.416;2023-03-23T07:45:14;13.98;;;4.60;;
38358;SDS011;42072;48.044;14.416;2023-03-23T07:47:40;9.52;;;4.70;;
38358;SDS011;42072;48.044;14.416;2023-03-23T07:50:07;9.25;;;4.28;;
38358;SDS011;42072;48.044;14.416;2023-03-23T07:52:34;7.65;;;4.47;;
38358;SDS011;42072;48.044;14.416;2023-03-23T07:55:01;8.48;;;4.30;;
38358;SDS011;42072;48.044;14.416;2023-03-23T07:57:29;9.52;;;4.53;;
38358;SDS011;42072;48.044;14.416;2023-03-23T07:59:56;9.57;;;4.57;;
38358;SDS011;42072;48.044;14.416;2023-03-23T08:02:23;8.05;;;4.47;;
38358;SDS011;42072;48.044;14.416;2023-03-23T08:04:49;10.05;;;4.70;;
38358;SDS011;42072;48.044;14.416;2023-03-23T08:07:16;8.23;;;4.55;;
38358;SDS011;42072;48.044;14.416;2023-03-23T08:09:44;9.73;;;4.97;;
38358;SDS011;42072;48.044;14.416;2023-03-23T08:12:13;7.65;;;4.47;;
38358;SDS011;42072;48.044;14.416;2023-03-23T08:14:39;11.13;;;4.30;;
38358;SDS011;42072;48.044;14.416;2023-03-23T08:17:07;10.30;;;3.90;;
38358;SDS011;42072;48.044;14.416;2023-03-23T08:19:34;5.93;;;4.13;;
38358;SDS011;42072;48.044;14.416;2023-03-23T08:22:03;5.25;;;3.70;;
38358;SDS011;42072;48.044;14.416;2023-03-23T08:24:30;3.72;;;3.03;;
38358;SDS011;42072;48.044;14.416;2023-03-23T08:26:58;7.80;;;3.90;;
38358;SDS011;42072;48.044;14.416;2023-03-23T08:29:24;6.50;;;3.70;;
38358;SDS011;42072;48.044;14.416;2023-03-23T08:31:50;5.82;;;2.78;;
38358;SDS011;42072;48.044;14.416;2023-03-23T08:34:16;5.93;;;3.33;;
38358;SDS011;42072;48.044;14.416;2023-03-23T08:36:42;3.92;;;3.08;;
38358;SDS011;42072;48.044;14.416;2023-03-23T08:39:10;8.60;;;3.13;;
38358;SDS011;42072;48.044;14.416;2023-03-23T08:41:36;5.57;;;3.00;;
38358;SDS011;42072;48.044;14.416;2023-03-23T08:44:02;4.28;;;2.70;;
38358;SDS011;42072;48.044;14.416;2023-03-23T08:46:30;5.63;;;3.05;;
38358;SDS011;42072;48.044;14.416;2023-03-23T08:48:56;9.07;;;4.50;;
38358;SDS011;42072;48.044;14.416;2023-03-23T08:51:22;10.05;;;3.60;;
38358;SDS011;42072;48.044;14.416;2023-03-23T08:53:49;6.25;;;4.32;;
38358;SDS011;42072;48.044;14.416;2023-03-23T08:56:16;10.75;;;6.72;;
38358;SDS011;42072;48.044;14.416;2023-03-23T08:58:42;8.98;;;6.57;;
38358;SDS011;42072;48.044;14.416;2023-03-23T09:01:08;10.27;;;7.57;;
38358;SDS011;42072;48.044;14.416;2023-03-23T09:03:37;14.82;;;9.10;;
38358;SDS011;42072;48.044;14.416;2023-03-23T09:06:05;22.88;;;12.25;;
38358;SDS011;42072;48.044;14.416;2023-03-23T09:08:33;16.77;;;10.55;;
38358;SDS011;42072;48.044;14.416;2023-03-23T09:11:04;20.63;;;10.85;;
38358;SDS011;42072;48.044;14.416;2023-03-23T09:13:33;19.98;;;11.18;;
38358;SDS011;42072;48.044;14.416;2023-03-23T09:16:03;13.95;;;8.82;;
38358;SDS011;42072;48.044;14.416;2023-03-23T09:18:31;16.20;;;9.25;;
38358;SDS011;42072;48.044;14.416;2023-03-23T09:21:00;13.13;;;7.32;;
38358;SDS011;42072;48.044;14.416;2023-03-23T09:23:27;13.57;;;8.90;;
38358;SDS011;42072;48.044;14.416;2023-03-23T09:25:52;20.98;;;9.95;;
38358;SDS011;42072;48.044;14.416;2023-03-23T09:28:19;16.13;;;8.85;;
38358;SDS011;42072;48.044;14.416;2023-03-23T09:30:45;18.20;;;10.73;;
38358;SDS011;42072;48.044;14.416;2023-03-23T09:33:12;15.00;;;10.43;;
38358;SDS011;42072;48.044;14.416;2023-03-23T09:35:39;16.80;;;9.95;;
38358;SDS011;42072;48.044;14.416;2023-03-23T09:38:07;14.57;;;8.95;;
38358;SDS011;42072;48.044;14.416;2023-03-23T09:40:48;13.93;;;9.13;;
38358;SDS011;42072;48.044;14.416;2023-03-23T09:51:57;12.02;;;8.80;;
38358;SDS011;42072;48.044;14.416;2023-03-23T09:54:30;14.63;;;9.55;;
38358;SDS011;42072;48.044;14.416;2023-03-23T09:57:03;17.33;;;9.40;;
38358;SDS011;42072;48.044;14.416;2023-03-23T09:59:41;16.33;;;9.27;;
38358;SDS011;42072;48.044;14.416;2023-03-23T10:02:36;18.25;;;9.13;;
38358;SDS011;42072;48.044;14.416;2023-03-23T10:05:52;12.68;;;8.10;;
38358;SDS011;42072;48.044;14.416;2023-03-23T10:07:53;15.18;;;9.00;;
38358;SDS011;42072;48.044;14.416;2023-03-23T10:10:19;14.63;;;8.50;;
38358;SDS011;42072;48.044;14.416;2023-03-23T10:12:52;12.25;;;8.07;;
38358;SDS011;42072;48.044;14.416;2023-03-23T10:15:25;12.73;;;8.75;;
38358;SDS011;42072;48.044;14.416;2023-03-23T10:20:56;12.55;;;8.35;;
38358;SDS011;42072;48.044;14.416;2023-03-23T10:23:35;13.95;;;8.00;;
38358;SDS011;42072;48.044;14.416;2023-03-23T10:28:44;12.10;;;7.75;;
38358;SDS011;42072;48.044;14.416;2023-03-23T10:31:34;13.40;;;7.80;;
38358;SDS011;42072;48.044;14.416;2023-03-23T10:34:12;16.65;;;9.15;;
38358;SDS011;42072;48.044;14.416;2023-03-23T10:36:56;10.93;;;7.82;;
38358;SDS011;42072;48.044;14.416;2023-03-23T10:39:56;13.80;;;7.78;;
38358;SDS011;42072;48.044;14.416;2023-03-23T10:42:35;15.95;;;8.73;;
38358;SDS011;42072;48.044;14.416;2023-03-23T10:47:51;14.95;;;8.52;;
38358;SDS011;42072;48.044;14.416;2023-03-23T10:50:28;15.00;;;8.50;;
38358;SDS011;42072;48.044;14.416;2023-03-23T10:52:58;13.57;;;8.77;;
38358;SDS011;42072;48.044;14.416;2023-03-23T10:55:35;12.60;;;7.78;;
38358;SDS011;42072;48.044;14.416;2023-03-23T11:00:46;11.27;;;7.72;;
38358;SDS011;42072;48.044;14.416;2023-03-23T11:05:43;13.27;;;7.78;;
38358;SDS011;42072;48.044;14.416;2023-03-23T11:08:15;13.53;;;7.77;;
38358;SDS011;42072;48.044;14.416;2023-03-23T11:13:18;14.38;;;8.45;;
38358;SDS011;42072;48.044;14.416;2023-03-23T11:15:46;14.55;;;8.40;;
38358;SDS011;42072;48.044;14.416;2023-03-23T11:18:34;15.63;;;8.70;;
38358;SDS011;42072;48.044;14.416;2023-03-23T11:21:11;12.05;;;7.88;;
38358;SDS011;42072;48.044;14.416;2023-03-23T11:23:40;13.32;;;8.07;;
38358;SDS011;42072;48.044;14.416;2023-03-23T11:26:10;13.77;;;8.60;;
38358;SDS011;42072;48.044;14.416;2023-03-23T11:31:36;11.77;;;7.07;;
38358;SDS011;42072;48.044;14.416;2023-03-23T11:36:37;10.95;;;6.65;;
38358;SDS011;42072;48.044;14.416;2023-03-23T11:39:20;15.10;;;6.72;;
38358;SDS011;42072;48.044;14.416;2023-03-23T11:41:46;10.95;;;7.00;;
38358;SDS011;42072;48.044;14.416;2023-03-23T11:44:13;12.80;;;7.70;;
38358;SDS011;42072;48.044;14.416;2023-03-23T11:46:48;12.50;;;8.10;;
38358;SDS011;42072;48.044;14.416;2023-03-23T11:49:30;14.75;;;8.20;;
38358;SDS011;42072;48.044;14.416;2023-03-23T11:55:31;8.88;;;5.82;;
38358;SDS011;42072;48.044;14.416;2023-03-23T11:58:12;11.10;;;5.30;;
38358;SDS011;42072;48.044;14.416;2023-03-23T12:00:44;14.45;;;7.57;;
38358;SDS011;42072;48.044;14.416;2023-03-23T12:03:20;9.63;;;5.82;;
38358;SDS011;42072;48.044;14.416;2023-03-23T12:08:26;8.77;;;5.22;;
38358;SDS011;42072;48.044;14.416;2023-03-23T12:11:02;8.45;;;4.43;;
38358;SDS011;42072;48.044;14.416;2023-03-23T12:19:10;5.63;;;3.35;;
38358;SDS011;42072;48.044;14.416;2023-03-23T12:22:21;7.88;;;3.83;;
38358;SDS011;42072;48.044;14.416;2023-03-23T12:33:01;7.25;;;3.30;;
38358;SDS011;42072;48.044;14.416;2023-03-23T12:39:03;3.08;;;1.80;;
38358;SDS011;42072;48.044;14.416;2023-03-23T12:44:17;3.88;;;1.92;;
38358;SDS011;42072;48.044;14.416;2023-03-23T12:47:00;2.72;;;1.83;;
38358;SDS011;42072;48.044;14.416;2023-03-23T12:49:37;4.45;;;2.10;;
38358;SDS011;42072;48.044;14.416;2023-03-23T12:52:35;2.08;;;1.42;;
38358;SDS011;42072;48.044;14.416;2023-03-23T12:55:21;1.92;;;1.40;;
38358;SDS011;42072;48.044;14.416;2023-03-23T12:58:15;4.32;;;3.03;;
38358;SDS011;42072;48.044;14.416;2023-03-23T13:00:53;5.53;;;3.47;;
38358;SDS011;42072;48.044;14.416;2023-03-23T13:03:28;3.67;;;1.88;;
38358;SDS011;42072;48.044;14.416;2023-03-23T13:06:55;4.82;;;1.80;;
38358;SDS011;42072;48.044;14.416;2023-03-23T13:09:28;2.65;;;1.60;;
38358;SDS011;42072;48.044;14.416;2023-03-23T13:11:58;2.90;;;2.00;;
38358;SDS011;42072;48.044;14.416;2023-03-23T13:14:32;3.03;;;2.10;;
38358;SDS011;42072;48.044;14.416;2023-03-23T13:17:20;3.50;;;2.20;;
38358;SDS011;42072;48.044;14.416;2023-03-23T13:20:04;2.67;;;2.35;;
38358;SDS011;42072;48.044;14.416;2023-03-23T13:28:28;5.55;;;3.00;;
38358;SDS011;42072;48.044;14.416;2023-03-23T13:30:59;6.35;;;3.40;;
38358;SDS011;42072;48.044;14.416;2023-03-23T13:33:58;5.20;;;3.20;;
38358;SDS011;42072;48.044;14.416;2023-03-23T13:36:58;8.75;;;4.57;;
38358;SDS011;42072;48.044;14.416;2023-03-23T13:39:28;7.13;;;4.35;;
38358;SDS011;42072;48.044;14.416;2023-03-23T13:42:05;9.20;;;4.43;;
38358;SDS011;42072;48.044;14.416;2023-03-23T13:49:53;8.55;;;4.63;;
38358;SDS011;42072;48.044;14.416;2023-03-23T14:03:03;8.90;;;5.63;;
38358;SDS011;42072;48.044;14.416;2023-03-23T14:05:30;9.75;;;5.90;;
38358;SDS011;42072;48.044;14.416;2023-03-23T14:10:39;9.82;;;5.78;;
38358;SDS011;42072;48.044;14.416;2023-03-23T14:13:14;11.25;;;5.43;;
38358;SDS011;42072;48.044;14.416;2023-03-23T14:15:59;13.00;;;5.72;;
38358;SDS011;42072;48.044;14.416;2023-03-23T14:18:32;11.98;;;6.57;;
38358;SDS011;42072;48.044;14.416;2023-03-23T14:21:01;11.13;;;6.68;;
38358;SDS011;42072;48.044;14.416;2023-03-23T14:23:30;13.75;;;6.57;;
38358;SDS011;42072;48.044;14.416;2023-03-23T14:26:00;12.70;;;6.82;;
38358;SDS011;42072;48.044;14.416;2023-03-23T14:28:36;12.02;;;6.97;;
38358;SDS011;42072;48.044;14.416;2023-03-23T14:31:04;11.30;;;6.32;;
38358;SDS011;42072;48.044;14.416;2023-03-23T14:33:39;14.38;;;7.28;;
38358;SDS011;42072;48.044;14.416;2023-03-23T14:36:06;12.27;;;6.25;;
38358;SDS011;42072;48.044;14.416;2023-03-23T14:38:33;12.55;;;6.35;;
38358;SDS011;42072;48.044;14.416;2023-03-23T14:41:00;13.05;;;6.70;;
38358;SDS011;42072;48.044;14.416;2023-03-23T14:43:30;12.35;;;6.53;;
38358;SDS011;42072;48.044;14.416;2023-03-23T14:46:00;12.65;;;7.13;;
38358;SDS011;42072;48.044;14.416;2023-03-23T14:48:30;12.52;;;7.05;;
38358;SDS011;42072;48.044;14.416;2023-03-23T14:51:00;13.25;;;6.72;;
38358;SDS011;42072;48.044;14.416;2023-03-23T14:56:12;16.55;;;6.93;;
38358;SDS011;42072;48.044;14.416;2023-03-23T14:59:02;11.52;;;6.85;;
38358;SDS011;42072;48.044;14.416;2023-03-23T15:01:34;12.25;;;6.63;;
38358;SDS011;42072;48.044;14.416;2023-03-23T15:06:36;10.75;;;6.55;;
38358;SDS011;42072;48.044;14.416;2023-03-23T15:09:06;11.00;;;6.20;;
38358;SDS011;42072;48.044;14.416;2023-03-23T15:11:37;13.68;;;6.60;;
38358;SDS011;42072;48.044;14.416;2023-03-23T15:14:16;12.57;;;7.20;;
38358;SDS011;42072;48.044;14.416;2023-03-23T15:16:49;12.10;;;6.78;;
38358;SDS011;42072;48.044;14.416;2023-03-23T15:19:36;15.52;;;6.80;;
38358;SDS011;42072;48.044;14.416;2023-03-23T15:22:21;14.18;;;7.18;;
38358;SDS011;42072;48.044;14.416;2023-03-23T15:24:50;14.43;;;6.90;;
38358;SDS011;42072;48.044;14.416;2023-03-23T15:27:33;12.50;;;7.03;;
38358;SDS011;42072;48.044;14.416;2023-03-23T15:30:13;12.90;;;6.50;;
38358;SDS011;42072;48.044;14.416;2023-03-23T15:33:04;12.18;;;6.55;;
38358;SDS011;42072;48.044;14.416;2023-03-23T15:35:41;12.85;;;6.82;;
38358;SDS011;42072;48.044;14.416;2023-03-23T15:38:24;12.52;;;6.88;;
38358;SDS011;42072;48.044;14.416;2023-03-23T15:40:54;14.60;;;7.50;;
38358;SDS011;42072;48.044;14.416;2023-03-23T15:43:24;11.52;;;6.70;;
38358;SDS011;42072;48.044;14.416;2023-03-23T15:45:59;13.20;;;7.03;;
38358;SDS011;42072;48.044;14.416;2023-03-23T15:48:48;11.13;;;6.60;;
38358;SDS011;42072;48.044;14.416;2023-03-23T15:51:25;13.93;;;6.60;;
38358;SDS011;42072;48.044;14.416;2023-03-23T15:53:53;13.13;;;7.28;;
38358;SDS011;42072;48.044;14.416;2023-03-23T15:56:20;12.20;;;6.72;;
38358;SDS011;42072;48.044;14.416;2023-03-23T15:58:47;12.27;;;7.20;;
38358;SDS011;42072;48.044;14.416;2023-03-23T16:01:25;12.35;;;6.65;;
38358;SDS011;42072;48.044;14.416;2023-03-23T16:06:32;12.48;;;6.95;;
38358;SDS011;42072;48.044;14.416;2023-03-23T16:09:00;12.35;;;6.63;;
38358;SDS011;42072;48.044;14.416;2023-03-23T16:11:29;12.10;;;6.82;;
38358;SDS011;42072;48.044;14.416;2023-03-23T16:13:57;13.63;;;7.10;;
38358;SDS011;42072;48.044;14.416;2023-03-23T16:16:27;16.88;;;7.25;;
38358;SDS011;42072;48.044;14.416;2023-03-23T16:18:59;14.25;;;6.68;;
38358;SDS011;42072;48.044;14.416;2023-03-23T16:21:26;14.23;;;7.03;;
38358;SDS011;42072;48.044;14.416;2023-03-23T16:23:54;12.63;;;7.25;;
38358;SDS011;42072;48.044;14.416;2023-03-23T16:26:21;12.02;;;6.97;;
38358;SDS011;42072;48.044;14.416;2023-03-23T16:28:49;13.10;;;6.50;;
38358;SDS011;42072;48.044;14.416;2023-03-23T16:31:20;15.50;;;6.75;;
38358;SDS011;42072;48.044;14.416;2023-03-23T16:33:47;12.77;;;6.95;;
38358;SDS011;42072;48.044;14.416;2023-03-23T16:36:15;14.15;;;7.18;;